Time;durP1;ratioP1;P1;durP2;ratioP2;P2;SDS_P1;SDS_P2;PMS_P1;PMS_P2;Temp;Humidity;BMP_temperature;BMP_pressure;BME280_temperature;BME280_humidity;BME280_pressure;Samples;Min_cycle;Max_cycle;Signal;HPM_P1;HPM_P2
2023/03/12 00:00:42;;;;;;;11.70;5.20;;;0.20;99.90;;;;;;4978927;28;20042;-55
2023/03/12 00:03:08;;;;;;;8.25;4.78;;;0.10;99.90;;;;;;4980527;28;20056;-57
2023/03/12 00:05:37;;;;;;;10.20;5.05;;;0.10;99.90;;;;;;4961080;28;20070;-54
2023/03/12 00:08:03;;;;;;;9.77;5.25;;;0.10;99.90;;;;;;4980815;28;20047;-54
2023/03/12 00:10:29;;;;;;;7.88;4.85;;;0.10;99.90;;;;;;4978429;28;20489;-56
2023/03/12 00:12:55;;;;;;;10.82;4.88;;;0.10;99.90;;;;;;4962847;28;20058;-53
2023/03/12 00:15:22;;;;;;;9.50;5.13;;;0.00;99.90;;;;;;4979432;28;20054;-54
2023/03/12 00:17:48;;;;;;;8.25;5.32;;;0.00;99.90;;;;;;4980442;28;20125;-56
2023/03/12 00:20:13;;;;;;;9.50;5.18;;;0.00;99.90;;;;;;4961710;28;20045;-56
2023/03/12 00:22:39;;;;;;;9.07;4.88;;;0.00;99.90;;;;;;4980975;28;20043;-54
2023/03/12 00:25:09;;;;;;;8.75;4.75;;;0.00;99.90;;;;;;4973727;28;20050;-56
2023/03/12 00:27:35;;;;;;;9.27;5.13;;;0.00;99.90;;;;;;4979161;28;20164;-56
2023/03/12 00:30:02;;;;;;;10.25;5.63;;;0.00;99.90;;;;;;4983588;28;20057;-54
2023/03/12 00:32:31;;;;;;;9.93;4.68;;;0.00;99.90;;;;;;4980300;28;20045;-55
2023/03/12 00:34:56;;;;;;;10.43;4.88;;;0.00;99.90;;;;;;4979960;28;20109;-56
2023/03/12 00:37:22;;;;;;;6.60;4.25;;;-0.10;99.90;;;;;;4978856;28;20053;-53
2023/03/12 00:39:48;;;;;;;7.55;4.78;;;0.00;99.90;;;;;;4979366;28;20359;-55
2023/03/12 00:42:14;;;;;;;9.70;4.80;;;-0.10;99.90;;;;;;4979912;28;20157;-55
2023/03/12 00:44:40;;;;;;;10.00;5.03;;;-0.10;99.90;;;;;;4980269;28;20055;-56
2023/03/12 00:47:06;;;;;;;7.63;4.63;;;-0.10;99.90;;;;;;4979110;28;20043;-55
2023/03/12 00:49:32;;;;;;;8.32;4.60;;;-0.10;99.90;;;;;;4979888;28;20041;-56
2023/03/12 00:51:57;;;;;;;7.88;3.85;;;-0.10;99.90;;;;;;4979702;28;20488;-55
2023/03/12 00:54:23;;;;;;;10.10;4.30;;;-0.10;99.90;;;;;;4943983;28;20057;-56
2023/03/12 00:56:49;;;;;;;7.25;4.20;;;-0.10;99.90;;;;;;4959353;28;20057;-54
2023/03/12 00:59:15;;;;;;;9.63;4.72;;;-0.10;99.90;;;;;;4977437;28;20050;-54
2023/03/12 01:01:42;;;;;;;6.45;4.15;;;-0.20;99.90;;;;;;4977535;28;20080;-54
2023/03/12 01:04:08;;;;;;;10.25;4.57;;;-0.20;99.90;;;;;;4979830;28;20049;-55
2023/03/12 01:06:34;;;;;;;9.90;4.75;;;-0.20;99.90;;;;;;4977272;28;20046;-54
2023/03/12 01:09:01;;;;;;;8.05;4.90;;;-0.20;99.90;;;;;;4981890;28;20050;-54
2023/03/12 01:11:27;;;;;;;8.63;4.72;;;-0.30;99.90;;;;;;4978606;28;20116;-54
2023/03/12 01:13:53;;;;;;;8.50;4.63;;;-0.30;99.90;;;;;;4954659;28;20153;-55
2023/03/12 01:16:19;;;;;;;8.38;4.90;;;-0.30;99.90;;;;;;4974656;28;20134;-56
2023/03/12 01:18:44;;;;;;;10.30;5.07;;;-0.30;99.90;;;;;;4969431;28;20050;-53
2023/03/12 01:21:10;;;;;;;8.50;4.70;;;-0.30;99.90;;;;;;4981401;28;20043;-56
2023/03/12 01:23:37;;;;;;;7.55;4.63;;;-0.30;99.90;;;;;;4980504;28;20067;-55
2023/03/12 01:26:03;;;;;;;9.10;4.88;;;-0.30;99.90;;;;;;4980006;28;20073;-53
2023/03/12 01:28:29;;;;;;;9.98;4.68;;;-0.40;99.90;;;;;;4981845;28;20130;-55
2023/03/12 01:30:54;;;;;;;6.05;4.47;;;-0.30;99.90;;;;;;4978361;28;20061;-56
2023/03/12 01:33:21;;;;;;;9.45;5.20;;;-0.40;99.90;;;;;;4982959;28;20089;-54
2023/03/12 01:35:47;;;;;;;7.55;4.82;;;-0.30;99.90;;;;;;4982800;28;20476;-56
2023/03/12 01:38:15;;;;;;;9.00;4.57;;;-0.40;99.90;;;;;;4976908;28;20046;-54
2023/03/12 01:40:42;;;;;;;10.18;5.60;;;-0.40;99.90;;;;;;4982195;28;20050;-56
2023/03/12 01:43:29;;;;;;;8.82;5.15;;;-0.40;99.90;;;;;;4981965;28;20050;-53
2023/03/12 01:46:14;;;;;;;8.73;5.38;;;-0.40;99.90;;;;;;4979789;28;20093;-55
2023/03/12 01:48:44;;;;;;;9.50;5.32;;;-0.40;99.90;;;;;;4982221;28;20755;-53
2023/03/12 01:51:12;;;;;;;11.35;5.20;;;-0.40;99.90;;;;;;4981435;28;20157;-56
2023/03/12 01:53:41;;;;;;;12.45;5.82;;;-0.40;99.90;;;;;;4982037;28;20062;-54
2023/03/12 01:56:08;;;;;;;17.38;6.20;;;-0.40;99.90;;;;;;4981287;28;20334;-54
2023/03/12 01:58:39;;;;;;;11.10;5.72;;;-0.40;99.90;;;;;;4975416;28;20042;-55
2023/03/12 02:01:05;;;;;;;7.93;5.53;;;-0.40;99.90;;;;;;4979604;28;20097;-55
2023/03/12 02:03:32;;;;;;;7.72;5.18;;;-0.30;99.90;;;;;;4979751;28;20042;-53
2023/03/12 02:06:14;;;;;;;10.35;5.53;;;-0.30;99.90;;;;;;4972896;28;20085;-53
2023/03/12 02:08:46;;;;;;;8.57;5.47;;;-0.30;99.90;;;;;;4980496;28;20046;-55
2023/03/12 02:11:12;;;;;;;9.55;5.80;;;-0.30;99.90;;;;;;4979943;28;20055;-54
2023/03/12 02:13:38;;;;;;;8.02;5.32;;;-0.30;99.90;;;;;;4965324;28;20081;-55
2023/03/12 02:16:05;;;;;;;8.30;5.82;;;-0.20;99.90;;;;;;4979115;28;20034;-53
2023/03/12 02:18:33;;;;;;;8.45;5.20;;;-0.20;99.90;;;;;;4965857;28;20046;-54
2023/03/12 02:21:11;;;;;;;10.13;5.35;;;-0.20;99.90;;;;;;4982537;28;20568;-55
2023/03/12 02:24:01;;;;;;;10.95;5.10;;;-0.10;99.90;;;;;;4963455;28;20124;-56
2023/03/12 02:26:29;;;;;;;9.25;5.30;;;-0.10;99.90;;;;;;4978312;28;20053;-56
2023/03/12 02:28:55;;;;;;;9.70;4.78;;;-0.10;99.90;;;;;;4981876;28;20117;-56
2023/03/12 02:31:24;;;;;;;7.80;4.65;;;0.00;99.90;;;;;;4977770;28;20129;-55
2023/03/12 02:33:52;;;;;;;8.10;4.70;;;0.00;99.90;;;;;;4976315;28;20069;-54
2023/03/12 02:36:18;;;;;;;10.85;4.80;;;0.00;99.90;;;;;;4962558;28;20073;-55
2023/03/12 02:38:50;;;;;;;8.05;4.57;;;0.00;99.90;;;;;;4982309;28;20050;-54
2023/03/12 02:41:21;;;;;;;8.10;5.10;;;0.10;99.90;;;;;;4981088;28;20053;-56
2023/03/12 02:44:10;;;;;;;6.05;5.07;;;0.10;99.90;;;;;;4978697;28;20449;-54
2023/03/12 02:46:43;;;;;;;12.07;4.93;;;0.10;99.90;;;;;;4981557;28;20092;-54
2023/03/12 02:49:13;;;;;;;13.90;4.93;;;0.10;99.90;;;;;;4982344;28;20046;-56
2023/03/12 02:51:40;;;;;;;7.53;4.32;;;0.10;99.90;;;;;;4981723;28;20520;-56
2023/03/12 02:54:07;;;;;;;9.38;4.80;;;0.10;99.90;;;;;;4980594;28;20073;-53
2023/03/12 02:56:33;;;;;;;8.18;4.55;;;0.10;99.90;;;;;;4959094;28;20049;-55
2023/03/12 02:58:59;;;;;;;10.73;4.78;;;0.10;99.90;;;;;;4983120;28;20129;-56
2023/03/12 03:01:26;;;;;;;9.95;5.70;;;0.10;99.90;;;;;;4979034;28;20057;-55
2023/03/12 03:03:53;;;;;;;12.90;4.80;;;0.20;99.90;;;;;;4977162;28;20057;-56
2023/03/12 03:06:19;;;;;;;9.77;4.78;;;0.20;99.90;;;;;;4981085;28;20136;-54
2023/03/12 03:08:45;;;;;;;10.48;6.32;;;0.20;99.90;;;;;;4979786;28;20422;-54
2023/03/12 03:11:11;;;;;;;10.10;4.82;;;0.20;99.90;;;;;;4977357;28;20069;-54
2023/03/12 03:13:37;;;;;;;11.02;5.30;;;0.20;99.90;;;;;;4979979;28;20038;-55
2023/03/12 03:16:03;;;;;;;8.15;5.40;;;0.20;99.90;;;;;;4978015;28;20045;-54
2023/03/12 03:18:30;;;;;;;9.82;4.78;;;0.20;99.90;;;;;;4982291;28;20386;-53
2023/03/12 03:20:58;;;;;;;12.38;4.60;;;0.30;99.90;;;;;;4976923;28;20046;-54
2023/03/12 03:23:24;;;;;;;6.40;4.63;;;0.30;99.90;;;;;;4979026;28;20069;-55
2023/03/12 03:25:51;;;;;;;15.05;5.40;;;0.30;99.90;;;;;;4960687;28;20047;-56
2023/03/12 03:28:22;;;;;;;9.50;4.65;;;0.40;99.90;;;;;;4979258;28;20062;-54
2023/03/12 03:30:51;;;;;;;10.75;4.82;;;0.40;99.90;;;;;;4979450;28;20074;-55
2023/03/12 03:33:17;;;;;;;11.07;4.60;;;0.40;99.90;;;;;;4964097;28;20054;-55
2023/03/12 03:35:43;;;;;;;9.00;4.55;;;0.40;99.90;;;;;;4976830;28;20521;-55
2023/03/12 03:38:08;;;;;;;7.78;4.28;;;0.40;99.90;;;;;;4978928;28;20050;-54
2023/03/12 03:40:34;;;;;;;11.63;4.70;;;0.40;99.90;;;;;;4976526;28;20048;-53
2023/03/12 03:43:00;;;;;;;8.90;4.28;;;0.40;99.90;;;;;;4978337;28;20551;-55
2023/03/12 03:45:26;;;;;;;8.80;4.18;;;0.40;99.90;;;;;;4975327;28;20054;-54
2023/03/12 03:47:52;;;;;;;8.32;4.13;;;0.50;99.90;;;;;;4977482;28;20038;-53
2023/03/12 03:50:18;;;;;;;8.18;4.20;;;0.50;99.90;;;;;;4980254;28;20042;-55
2023/03/12 03:52:44;;;;;;;8.48;4.28;;;0.50;99.90;;;;;;4979098;28;20061;-54
2023/03/12 03:55:09;;;;;;;8.18;4.18;;;0.50;99.90;;;;;;4979219;28;20725;-57
2023/03/12 03:57:35;;;;;;;12.38;4.13;;;0.60;99.90;;;;;;4981565;28;20486;-54
2023/03/12 04:00:04;;;;;;;7.72;4.78;;;0.60;99.90;;;;;;4977090;28;20053;-54
2023/03/12 04:02:29;;;;;;;7.65;4.50;;;0.60;99.90;;;;;;4962050;28;20054;-55
2023/03/12 04:04:58;;;;;;;9.82;4.03;;;0.60;99.90;;;;;;4978376;28;20049;-56
2023/03/12 04:07:25;;;;;;;9.55;4.15;;;0.60;99.90;;;;;;4979593;28;21133;-56
2023/03/12 04:09:51;;;;;;;6.95;4.00;;;0.70;99.90;;;;;;4979344;28;20129;-55
2023/03/12 04:12:17;;;;;;;7.03;4.00;;;0.70;99.90;;;;;;4978747;28;20386;-55
2023/03/12 04:14:43;;;;;;;7.15;3.72;;;0.70;99.90;;;;;;4978677;28;20052;-55
2023/03/12 04:17:09;;;;;;;6.68;3.47;;;0.70;99.90;;;;;;4978480;28;20124;-56
2023/03/12 04:19:35;;;;;;;8.00;4.05;;;0.80;99.90;;;;;;4978024;28;20073;-56
2023/03/12 04:22:00;;;;;;;6.50;4.00;;;0.80;99.90;;;;;;4977406;28;20092;-54
2023/03/12 04:24:26;;;;;;;9.55;3.72;;;0.80;99.90;;;;;;4977161;28;20611;-55
2023/03/12 04:26:52;;;;;;;8.00;4.03;;;0.80;99.90;;;;;;4978764;28;20062;-56
2023/03/12 04:29:18;;;;;;;10.32;3.92;;;0.80;99.90;;;;;;4975233;28;20132;-54
2023/03/12 04:31:44;;;;;;;7.28;4.15;;;0.80;99.90;;;;;;4974620;28;20798;-55
2023/03/12 04:34:11;;;;;;;7.72;3.88;;;0.80;99.90;;;;;;4977342;28;20050;-55
2023/03/12 04:36:37;;;;;;;9.93;4.05;;;0.90;99.90;;;;;;4978269;28;20081;-53
2023/03/12 04:39:06;;;;;;;7.07;4.18;;;0.80;99.90;;;;;;4975604;28;20050;-56
2023/03/12 04:41:34;;;;;;;7.68;3.83;;;0.80;99.90;;;;;;4977693;28;20153;-55
2023/03/12 04:44:00;;;;;;;8.13;3.90;;;0.90;99.90;;;;;;4975866;28;20051;-56
2023/03/12 04:46:26;;;;;;;7.85;4.20;;;0.80;99.90;;;;;;4973013;28;20072;-55
2023/03/12 04:48:52;;;;;;;8.15;4.00;;;0.80;99.90;;;;;;4961025;28;20073;-54
2023/03/12 04:51:18;;;;;;;8.32;4.43;;;0.80;99.90;;;;;;4961392;28;20122;-55
2023/03/12 04:53:44;;;;;;;9.27;4.13;;;0.80;99.90;;;;;;4971632;28;20038;-56
2023/03/12 04:56:10;;;;;;;7.63;4.30;;;0.80;99.90;;;;;;4951469;28;20058;-56
2023/03/12 04:58:36;;;;;;;8.43;4.18;;;0.80;99.90;;;;;;4971823;28;20061;-54
2023/03/12 05:01:02;;;;;;;12.20;4.50;;;0.80;99.90;;;;;;4961787;28;20057;-53
2023/03/12 05:03:28;;;;;;;6.22;3.92;;;0.80;99.90;;;;;;4978952;28;20042;-53
2023/03/12 05:05:53;;;;;;;10.73;4.85;;;0.80;99.90;;;;;;4980586;28;20094;-56
2023/03/12 05:08:19;;;;;;;9.38;4.40;;;0.80;99.90;;;;;;4962936;28;20127;-56
2023/03/12 05:10:46;;;;;;;7.72;4.20;;;0.80;99.90;;;;;;4980163;28;20096;-54
2023/03/12 05:13:21;;;;;;;10.18;4.30;;;0.80;99.90;;;;;;4978853;28;20066;-55
2023/03/12 05:15:49;;;;;;;13.50;4.20;;;0.80;99.90;;;;;;4984088;28;20046;-56
2023/03/12 05:18:15;;;;;;;8.63;4.53;;;0.90;99.90;;;;;;4984303;28;20038;-56
2023/03/12 05:20:42;;;;;;;7.93;4.55;;;0.80;99.90;;;;;;4981447;28;20058;-54
2023/03/12 05:23:07;;;;;;;9.85;4.22;;;0.90;99.90;;;;;;4947667;28;20049;-55
2023/03/12 05:25:37;;;;;;;8.10;4.30;;;0.90;99.90;;;;;;4962415;28;20053;-55
2023/03/12 05:28:02;;;;;;;7.95;4.30;;;0.90;99.90;;;;;;4984673;28;20046;-54
2023/03/12 05:30:28;;;;;;;12.73;5.25;;;0.90;99.90;;;;;;4977642;28;20096;-56
2023/03/12 05:32:54;;;;;;;8.18;4.22;;;0.90;99.90;;;;;;4979688;28;20105;-54
2023/03/12 05:35:20;;;;;;;8.13;4.25;;;0.90;99.90;;;;;;4982314;28;20042;-55
2023/03/12 05:37:45;;;;;;;8.88;4.43;;;0.90;99.90;;;;;;4982037;28;20046;-55
2023/03/12 05:40:12;;;;;;;9.70;4.80;;;0.90;99.90;;;;;;4982852;28;20088;-56
2023/03/12 05:42:41;;;;;;;9.85;4.57;;;0.90;99.90;;;;;;4982732;28;20217;-55
2023/03/12 05:45:07;;;;;;;9.63;4.85;;;0.90;99.90;;;;;;4961107;28;20047;-55
2023/03/12 05:47:33;;;;;;;6.35;4.38;;;0.90;99.90;;;;;;4980707;28;20047;-54
2023/03/12 05:49:59;;;;;;;8.60;4.30;;;0.90;99.90;;;;;;4978033;28;20047;-55
2023/03/12 05:52:25;;;;;;;7.50;4.45;;;0.90;99.90;;;;;;4979899;28;20149;-55
2023/03/12 05:54:51;;;;;;;15.48;4.60;;;0.90;99.90;;;;;;4983540;28;20042;-53
2023/03/12 05:57:17;;;;;;;8.55;4.55;;;0.90;99.90;;;;;;4977070;28;20559;-57
2023/03/12 05:59:43;;;;;;;11.10;4.78;;;1.00;99.90;;;;;;4978808;28;20092;-54
2023/03/12 06:02:09;;;;;;;10.68;4.65;;;1.00;99.90;;;;;;4961018;28;20054;-56
2023/03/12 06:04:36;;;;;;;9.23;4.57;;;1.00;99.90;;;;;;4978979;28;20050;-56
2023/03/12 06:07:01;;;;;;;11.65;4.88;;;1.00;99.90;;;;;;4975869;28;20480;-55
2023/03/12 06:09:27;;;;;;;7.95;4.32;;;1.00;99.90;;;;;;4962683;28;20046;-56
2023/03/12 06:11:53;;;;;;;7.03;4.63;;;1.00;99.90;;;;;;4977114;28;20074;-55
2023/03/12 06:14:19;;;;;;;8.05;4.50;;;1.00;99.90;;;;;;4978146;28;20556;-55
2023/03/12 06:16:45;;;;;;;6.57;4.65;;;1.00;99.90;;;;;;4980340;28;20050;-56
2023/03/12 06:19:14;;;;;;;10.85;4.72;;;1.10;99.90;;;;;;4963684;28;20061;-57
2023/03/12 06:21:42;;;;;;;12.02;5.03;;;1.10;99.90;;;;;;4965297;28;20044;-55
2023/03/12 06:24:08;;;;;;;8.13;4.35;;;1.10;99.90;;;;;;4981474;28;20092;-55
2023/03/12 06:26:34;;;;;;;8.65;4.85;;;1.10;99.90;;;;;;4976289;28;21068;-55
2023/03/12 06:28:59;;;;;;;7.20;4.30;;;1.10;99.90;;;;;;4978668;28;20046;-56
2023/03/12 06:31:25;;;;;;;9.43;4.32;;;1.10;99.90;;;;;;4979273;28;20089;-55
2023/03/12 06:33:52;;;;;;;11.32;4.68;;;1.10;99.90;;;;;;4978643;28;20050;-56
2023/03/12 06:36:19;;;;;;;7.80;4.95;;;1.10;99.90;;;;;;4980815;28;20086;-54
2023/03/12 06:38:45;;;;;;;7.47;4.53;;;1.10;99.90;;;;;;4976079;28;20452;-55
2023/03/12 06:41:13;;;;;;;9.43;4.85;;;1.20;99.90;;;;;;4978784;28;20042;-55
2023/03/12 06:43:40;;;;;;;9.90;5.07;;;1.20;99.90;;;;;;4981409;28;20105;-55
2023/03/12 06:46:08;;;;;;;9.68;4.70;;;1.20;99.90;;;;;;4982119;28;20042;-56
2023/03/12 06:48:40;;;;;;;8.02;4.82;;;1.20;99.90;;;;;;4978799;28;20061;-54
2023/03/12 06:51:11;;;;;;;10.98;4.90;;;1.30;99.90;;;;;;4982007;28;20116;-55
2023/03/12 06:53:37;;;;;;;13.98;5.05;;;1.30;99.90;;;;;;4950186;28;20437;-55
2023/03/12 06:56:04;;;;;;;13.73;5.25;;;1.30;99.90;;;;;;4981400;28;20054;-56
2023/03/12 06:58:30;;;;;;;8.27;4.88;;;1.30;99.90;;;;;;4979059;28;20469;-55
2023/03/12 07:00:58;;;;;;;11.32;5.40;;;1.30;99.90;;;;;;4980561;28;20116;-55
2023/03/12 07:03:24;;;;;;;12.68;4.93;;;1.30;99.90;;;;;;4981584;28;20042;-56
2023/03/12 07:05:51;;;;;;;15.23;5.78;;;1.40;99.90;;;;;;4972115;28;20121;-55
2023/03/12 07:08:17;;;;;;;10.73;5.38;;;1.40;99.90;;;;;;4981449;28;20121;-56
2023/03/12 07:10:44;;;;;;;11.10;6.10;;;1.40;99.90;;;;;;4981226;28;20069;-55
2023/03/12 07:13:10;;;;;;;10.85;5.70;;;1.40;99.90;;;;;;4980809;28;20552;-54
2023/03/12 07:15:36;;;;;;;8.73;5.32;;;1.40;99.90;;;;;;4980587;28;20047;-56
2023/03/12 07:18:10;;;;;;;16.67;6.15;;;1.40;99.90;;;;;;4980593;28;20509;-56
2023/03/12 07:20:40;;;;;;;12.95;6.72;;;1.40;99.90;;;;;;4964721;28;20058;-56
2023/03/12 07:23:06;;;;;;;11.43;6.25;;;1.50;99.90;;;;;;4981766;28;20500;-56
2023/03/12 07:25:37;;;;;;;11.93;6.93;;;1.40;99.90;;;;;;4963843;28;20054;-56
2023/03/12 07:28:04;;;;;;;9.70;6.28;;;1.50;99.90;;;;;;4980514;28;20042;-52
2023/03/12 07:30:33;;;;;;;12.43;6.78;;;1.40;99.90;;;;;;4981577;28;20034;-55
2023/03/12 07:33:04;;;;;;;17.45;7.35;;;1.40;99.90;;;;;;4978469;28;20058;-54
2023/03/12 07:35:31;;;;;;;17.63;8.50;;;1.40;99.90;;;;;;4964376;28;20113;-56
2023/03/12 07:37:57;;;;;;;14.20;7.72;;;1.40;99.90;;;;;;4980474;28;20400;-56
2023/03/12 07:40:24;;;;;;;14.93;8.88;;;1.30;99.90;;;;;;4964205;28;20493;-55
2023/03/12 07:42:50;;;;;;;16.27;8.63;;;1.30;99.90;;;;;;4980729;28;20113;-56
2023/03/12 07:45:17;;;;;;;15.30;8.60;;;1.30;99.90;;;;;;4963636;28;20077;-56
2023/03/12 07:47:43;;;;;;;15.32;8.40;;;1.30;99.90;;;;;;4979845;28;20161;-56
2023/03/12 07:50:10;;;;;;;13.43;9.13;;;1.30;99.90;;;;;;4981121;28;20057;-55
2023/03/12 07:52:36;;;;;;;14.13;8.20;;;1.20;99.90;;;;;;4954060;28;20057;-55
2023/03/12 07:55:02;;;;;;;18.25;9.32;;;1.20;99.90;;;;;;4971272;28;20050;-56
2023/03/12 07:57:28;;;;;;;16.85;9.32;;;1.20;99.90;;;;;;4974113;28;20419;-56
2023/03/12 07:59:54;;;;;;;20.23;10.55;;;1.20;99.90;;;;;;4958931;28;20066;-56
2023/03/12 08:02:19;;;;;;;15.45;9.43;;;1.20;99.90;;;;;;4975615;28;20184;-55
2023/03/12 08:04:45;;;;;;;15.80;10.25;;;1.20;99.90;;;;;;4950688;28;20058;-56
2023/03/12 08:07:11;;;;;;;17.25;10.63;;;1.20;99.90;;;;;;4971323;28;20046;-55
2023/03/12 08:09:38;;;;;;;18.50;10.68;;;1.10;99.90;;;;;;4966083;28;20221;-56
2023/03/12 08:12:06;;;;;;;17.50;10.38;;;1.20;99.90;;;;;;4957003;28;20058;-56
2023/03/12 08:14:31;;;;;;;15.82;11.18;;;1.20;99.90;;;;;;4974500;28;20034;-55
2023/03/12 08:16:58;;;;;;;20.48;12.27;;;1.30;99.90;;;;;;4981503;28;20042;-56
2023/03/12 08:19:24;;;;;;;18.42;11.48;;;1.20;99.90;;;;;;4983309;28;20600;-55
2023/03/12 08:21:53;;;;;;;19.77;12.27;;;1.20;99.90;;;;;;4982365;28;20065;-56
2023/03/12 08:24:21;;;;;;;18.27;12.20;;;1.20;99.90;;;;;;4981758;28;20039;-56
2023/03/12 08:26:47;;;;;;;19.80;12.45;;;1.20;99.90;;;;;;4980052;28;20595;-55
2023/03/12 08:29:14;;;;;;;17.38;11.40;;;1.20;99.90;;;;;;4981455;28;20092;-57
2023/03/12 08:31:39;;;;;;;16.38;11.10;;;1.20;99.90;;;;;;4982427;28;20473;-55
2023/03/12 08:34:05;;;;;;;15.10;11.25;;;1.20;99.90;;;;;;4955468;28;20069;-56
2023/03/12 08:36:31;;;;;;;16.30;11.32;;;1.30;99.90;;;;;;4981013;28;20105;-56
2023/03/12 08:38:57;;;;;;;20.30;11.80;;;1.30;99.90;;;;;;4978738;28;20050;-55
2023/03/12 08:41:23;;;;;;;15.65;10.50;;;1.30;99.90;;;;;;4979993;28;20389;-56
2023/03/12 08:43:48;;;;;;;14.18;10.85;;;1.30;99.90;;;;;;4964425;28;20069;-57
2023/03/12 08:46:14;;;;;;;14.63;9.98;;;1.40;99.90;;;;;;4981602;28;20174;-57
2023/03/12 08:48:40;;;;;;;14.65;10.93;;;1.40;99.90;;;;;;4980056;28;20082;-56
2023/03/12 08:51:06;;;;;;;18.42;10.77;;;1.40;99.90;;;;;;4979884;28;20046;-56
2023/03/12 08:53:34;;;;;;;16.95;11.13;;;1.50;99.90;;;;;;4979946;28;20038;-55
2023/03/12 08:56:01;;;;;;;16.63;11.32;;;1.50;99.90;;;;;;4980288;28;20157;-57
2023/03/12 08:58:27;;;;;;;20.10;11.57;;;1.50;99.90;;;;;;4982914;28;20082;-56
2023/03/12 09:00:54;;;;;;;19.90;11.80;;;1.60;99.90;;;;;;4980830;28;20432;-57
2023/03/12 09:03:21;;;;;;;18.20;11.50;;;1.60;99.90;;;;;;4980662;28;20046;-56
2023/03/12 09:05:48;;;;;;;20.30;12.23;;;1.60;99.90;;;;;;4979517;28;20505;-55
2023/03/12 09:08:14;;;;;;;13.85;10.40;;;1.60;99.90;;;;;;4979155;28;20157;-56
2023/03/12 09:10:45;;;;;;;16.52;10.50;;;1.60;99.90;;;;;;4975497;28;20100;-57
2023/03/12 09:13:11;;;;;;;13.45;10.43;;;1.70;99.90;;;;;;4969455;28;20451;-55
2023/03/12 09:15:37;;;;;;;16.83;10.65;;;1.70;99.90;;;;;;4961924;28;20062;-55
2023/03/12 09:18:03;;;;;;;14.40;9.50;;;1.60;99.90;;;;;;4962441;28;20660;-55
2023/03/12 09:20:29;;;;;;;18.92;10.65;;;1.60;99.90;;;;;;4961651;28;20046;-53
2023/03/12 09:22:54;;;;;;;15.38;10.50;;;1.70;99.90;;;;;;4948823;28;20054;-56
2023/03/12 09:25:22;;;;;;;15.30;10.05;;;1.60;99.90;;;;;;4958412;28;20050;-56
2023/03/12 09:27:48;;;;;;;18.55;10.77;;;1.60;99.90;;;;;;4957102;28;20050;-57
2023/03/12 09:30:17;;;;;;;16.95;11.48;;;1.60;99.90;;;;;;4970888;28;20521;-56
2023/03/12 09:32:45;;;;;;;16.85;10.93;;;1.60;99.90;;;;;;4957695;28;20491;-56
2023/03/12 09:35:13;;;;;;;17.67;10.98;;;1.60;99.90;;;;;;4974902;28;20049;-55
2023/03/12 09:37:39;;;;;;;15.70;10.52;;;1.70;99.90;;;;;;4977352;28;20524;-56
2023/03/12 09:40:06;;;;;;;17.00;10.50;;;1.70;99.90;;;;;;4977876;28;20050;-54
2023/03/12 09:42:56;;;;;;;18.50;10.52;;;1.60;99.90;;;;;;4975204;28;20046;-57
2023/03/12 09:45:29;;;;;;;15.30;11.10;;;1.60;99.90;;;;;;4979230;28;20141;-56
2023/03/12 09:47:58;;;;;;;14.63;10.15;;;1.60;99.90;;;;;;4961907;28;20130;-56
2023/03/12 09:50:28;;;;;;;13.63;10.52;;;1.70;99.90;;;;;;4958676;28;20196;-56
2023/03/12 09:53:01;;;;;;;17.60;11.23;;;1.70;99.90;;;;;;4969554;28;20042;-56
2023/03/12 09:55:35;;;;;;;16.33;10.75;;;1.70;99.90;;;;;;4923321;28;20654;-55
2023/03/12 09:58:01;;;;;;;14.50;11.13;;;1.70;99.90;;;;;;4949608;28;20054;-56
2023/03/12 10:00:34;;;;;;;17.17;11.50;;;1.70;99.90;;;;;;4941586;28;20175;-57
2023/03/12 10:03:21;;;;;;;14.73;10.93;;;1.70;99.90;;;;;;4963655;28;20093;-56
2023/03/12 10:06:06;;;;;;;15.00;11.88;;;1.70;99.90;;;;;;4964077;28;20054;-56
2023/03/12 10:08:47;;;;;;;16.40;11.20;;;1.70;99.90;;;;;;4963660;28;20177;-56
2023/03/12 10:11:44;;;;;;;14.50;11.50;;;1.70;99.90;;;;;;4963617;28;20054;-56
2023/03/12 10:14:32;;;;;;;17.45;11.80;;;1.80;99.90;;;;;;4968278;28;20070;-56
2023/03/12 10:17:12;;;;;;;13.30;11.20;;;1.80;99.90;;;;;;4961106;28;20046;-56
2023/03/12 10:20:03;;;;;;;14.30;11.15;;;1.80;99.90;;;;;;4970824;28;20057;-57
2023/03/12 10:23:11;;;;;;;16.42;11.18;;;1.80;99.90;;;;;;4956007;28;20042;-55
2023/03/12 10:25:45;;;;;;;15.85;10.88;;;1.90;99.90;;;;;;4966467;28;20134;-55
2023/03/12 10:28:40;;;;;;;16.60;11.07;;;1.90;99.90;;;;;;4976033;28;20077;-57
2023/03/12 10:31:20;;;;;;;16.48;10.88;;;1.90;99.90;;;;;;4960103;28;20531;-57
2023/03/12 10:33:59;;;;;;;17.17;11.35;;;2.00;99.90;;;;;;4943060;28;20046;-56
2023/03/12 10:36:37;;;;;;;17.92;11.70;;;2.10;99.90;;;;;;4958900;28;20187;-56
2023/03/12 10:39:03;;;;;;;18.20;12.88;;;2.00;99.90;;;;;;4948401;28;20132;-56
2023/03/12 10:41:31;;;;;;;16.48;11.50;;;2.10;99.90;;;;;;4962159;28;20049;-57
2023/03/12 10:44:06;;;;;;;17.08;11.50;;;2.10;99.90;;;;;;4951630;28;20129;-57
2023/03/12 10:47:20;;;;;;;12.30;10.52;;;2.10;99.90;;;;;;4968069;28;20137;-56
2023/03/12 10:49:49;;;;;;;16.10;11.30;;;2.10;99.90;;;;;;4953474;28;20088;-56
2023/03/12 10:52:17;;;;;;;16.42;11.45;;;2.10;99.90;;;;;;4968660;28;20052;-56
2023/03/12 10:54:50;;;;;;;17.08;11.85;;;2.20;99.90;;;;;;4963983;28;20104;-55
2023/03/12 10:57:16;;;;;;;14.50;11.75;;;2.20;99.90;;;;;;4961851;28;20074;-57
2023/03/12 10:59:47;;;;;;;16.95;12.02;;;2.20;99.90;;;;;;4972100;28;20105;-55
2023/03/12 11:02:38;;;;;;;19.33;11.85;;;2.20;99.90;;;;;;4980184;28;20046;-57
2023/03/12 11:05:27;;;;;;;16.50;11.10;;;2.30;99.90;;;;;;4959355;28;20063;-57
2023/03/12 11:07:53;;;;;;;16.98;12.20;;;2.30;99.90;;;;;;4969820;28;20045;-57
2023/03/12 11:10:37;;;;;;;15.40;11.07;;;2.30;99.90;;;;;;4965704;28;20046;-57
2023/03/12 11:13:20;;;;;;;17.77;12.10;;;2.30;99.90;;;;;;4963303;28;20068;-56
2023/03/12 11:15:46;;;;;;;16.80;12.07;;;2.30;99.90;;;;;;4951373;28;20109;-56
2023/03/12 11:18:21;;;;;;;18.15;12.77;;;2.40;99.90;;;;;;4960369;28;20053;-56
2023/03/12 11:21:09;;;;;;;18.33;12.88;;;2.40;99.90;;;;;;4960678;28;20505;-55
2023/03/12 11:23:38;;;;;;;19.73;13.20;;;2.40;99.90;;;;;;4967108;28;20058;-56
2023/03/12 11:26:18;;;;;;;21.90;13.02;;;2.50;99.90;;;;;;4962730;28;20046;-55
2023/03/12 11:28:50;;;;;;;18.80;13.90;;;2.50;99.90;;;;;;4964610;28;20125;-56
2023/03/12 11:31:54;;;;;;;20.67;14.27;;;2.60;99.90;;;;;;4963996;28;20042;-56
2023/03/12 11:34:27;;;;;;;20.85;14.30;;;2.60;99.90;;;;;;4935044;28;20771;-56
2023/03/12 11:37:04;;;;;;;20.60;13.77;;;2.70;99.90;;;;;;4968818;28;20080;-56
2023/03/12 11:39:47;;;;;;;19.95;14.55;;;2.70;99.90;;;;;;4957839;28;20042;-57
2023/03/12 11:42:33;;;;;;;21.52;13.98;;;2.80;99.90;;;;;;4967389;28;20049;-57
2023/03/12 11:45:05;;;;;;;23.23;14.50;;;2.80;99.90;;;;;;4964177;28;20058;-55
2023/03/12 11:48:09;;;;;;;24.93;15.10;;;2.80;99.90;;;;;;4968022;28;20056;-56
2023/03/12 11:50:34;;;;;;;20.48;14.45;;;2.90;99.90;;;;;;4964773;28;20215;-56
2023/03/12 11:53:20;;;;;;;19.77;14.75;;;2.90;99.90;;;;;;4969438;28;20069;-57
2023/03/12 11:55:54;;;;;;;23.55;15.20;;;3.00;99.90;;;;;;4963021;28;20064;-57
2023/03/12 11:58:57;;;;;;;23.15;16.35;;;3.10;99.90;;;;;;4933125;28;20054;-54
2023/03/12 12:01:39;;;;;;;;;;;3.10;99.90;;;;;;4971668;28;20056;-55
2023/03/12 12:04:32;;;;;;;27.00;15.80;;;3.20;99.90;;;;;;4950734;28;19922;-57
2023/03/12 12:07:18;;;;;;;25.23;16.08;;;3.20;99.90;;;;;;4952955;28;20064;-56
2023/03/12 12:10:00;;;;;;;22.58;15.85;;;3.30;99.90;;;;;;4963495;28;20161;-56
2023/03/12 12:12:38;;;;;;;29.52;15.95;;;3.40;99.90;;;;;;4966409;28;20073;-56
2023/03/12 12:15:31;;;;;;;23.85;16.23;;;3.40;99.90;;;;;;4961101;28;21645;-57
2023/03/12 12:18:45;;;;;;;26.88;16.92;;;3.60;99.90;;;;;;4963211;28;20096;-55
2023/03/12 12:21:35;;;;;;;29.48;18.05;;;3.70;99.90;;;;;;4961777;28;20535;-57
2023/03/12 12:24:20;;;;;;;30.70;18.13;;;3.80;99.90;;;;;;4956598;28;20042;-56
2023/03/12 12:27:13;;;;;;;34.35;19.40;;;3.90;99.90;;;;;;4961600;28;20129;-57
2023/03/12 12:30:04;;;;;;;31.80;19.02;;;4.10;99.90;;;;;;4975460;28;20631;-55
2023/03/12 12:33:00;;;;;;;35.00;19.02;;;4.20;99.90;;;;;;4967451;28;20050;-57
2023/03/12 12:35:44;;;;;;;35.38;19.65;;;4.40;99.90;;;;;;4957698;28;20057;-56
2023/03/12 12:38:34;;;;;;;36.38;19.88;;;4.50;99.90;;;;;;4972871;28;20404;-57
2023/03/12 12:41:10;;;;;;;29.70;17.92;;;4.70;99.90;;;;;;4968554;28;20073;-55
2023/03/12 12:43:38;;;;;;;30.05;18.58;;;4.70;99.90;;;;;;4963599;28;20046;-56
2023/03/12 12:46:09;;;;;;;32.42;18.80;;;4.80;99.90;;;;;;4963075;28;20512;-56
2023/03/12 12:48:42;;;;;;;37.30;20.02;;;4.90;99.90;;;;;;4963805;28;20106;-57
2023/03/12 12:51:09;;;;;;;35.50;19.42;;;5.00;99.90;;;;;;4966125;28;20046;-57
2023/03/12 12:54:01;;;;;;;39.83;19.75;;;5.10;99.90;;;;;;4968208;28;20073;-57
2023/03/12 12:57:02;;;;;;;42.30;20.25;;;5.30;99.90;;;;;;4949630;28;20057;-58
2023/03/12 12:59:50;;;;;;;36.90;19.52;;;5.40;99.90;;;;;;4936586;28;20551;-57
2023/03/12 13:02:20;;;;;;;36.15;19.23;;;5.50;99.90;;;;;;4973053;28;20046;-57